sensor_id;sensor_type;location;lat;lon;timestamp;P1;durP1;ratioP1;P2;durP2;ratioP2
2147;SDS011;1080;48.724;9.104;2022-12-17T00:02:49;19.40;;;8.30;;
2147;SDS011;1080;48.724;9.104;2022-12-17T00:05:34;12.60;;;7.90;;
2147;SDS011;1080;48.724;9.104;2022-12-17T00:08:20;17.33;;;9.67;;
2147;SDS011;1080;48.724;9.104;2022-12-17T00:11:04;13.57;;;7.50;;
2147;SDS011;1080;48.724;9.104;2022-12-17T00:13:49;21.30;;;10.90;;
2147;SDS011;1080;48.724;9.104;2022-12-17T00:16:33;13.17;;;7.80;;
2147;SDS011;1080;48.724;9.104;2022-12-17T00:19:18;19.13;;;9.73;;
2147;SDS011;1080;48.724;9.104;2022-12-17T00:22:02;14.03;;;7.27;;
2147;SDS011;1080;48.724;9.104;2022-12-17T00:24:48;10.67;;;6.87;;
2147;SDS011;1080;48.724;9.104;2022-12-17T00:27:32;13.20;;;8.23;;
2147;SDS011;1080;48.724;9.104;2022-12-17T00:30:17;11.90;;;6.77;;
2147;SDS011;1080;48.724;9.104;2022-12-17T00:33:01;13.00;;;7.73;;
2147;SDS011;1080;48.724;9.104;2022-12-17T00:35:49;11.77;;;7.47;;
2147;SDS011;1080;48.724;9.104;2022-12-17T00:38:34;12.53;;;8.07;;
2147;SDS011;1080;48.724;9.104;2022-12-17T00:41:25;12.63;;;8.03;;
2147;SDS011;1080;48.724;9.104;2022-12-17T00:44:09;19.60;;;9.47;;
2147;SDS011;1080;48.724;9.104;2022-12-17T00:46:54;13.83;;;7.27;;
2147;SDS011;1080;48.724;9.104;2022-12-17T00:49:39;18.80;;;8.77;;
2147;SDS011;1080;48.724;9.104;2022-12-17T00:52:23;11.57;;;7.97;;
2147;SDS011;1080;48.724;9.104;2022-12-17T00:55:08;16.77;;;8.90;;
2147;SDS011;1080;48.724;9.104;2022-12-17T00:57:54;11.30;;;6.73;;
2147;SDS011;1080;48.724;9.104;2022-12-17T01:00:39;12.47;;;7.70;;
2147;SDS011;1080;48.724;9.104;2022-12-17T01:03:35;11.03;;;6.90;;
2147;SDS011;1080;48.724;9.104;2022-12-17T01:06:20;15.70;;;8.27;;
2147;SDS011;1080;48.724;9.104;2022-12-17T01:09:05;13.37;;;8.40;;
2147;SDS011;1080;48.724;9.104;2022-12-17T01:11:50;12.30;;;7.73;;
2147;SDS011;1080;48.724;9.104;2022-12-17T01:14:36;10.87;;;7.00;;
2147;SDS011;1080;48.724;9.104;2022-12-17T01:17:20;9.93;;;7.10;;
2147;SDS011;1080;48.724;9.104;2022-12-17T01:20:05;12.67;;;7.90;;
2147;SDS011;1080;48.724;9.104;2022-12-17T01:22:50;12.30;;;7.20;;
2147;SDS011;1080;48.724;9.104;2022-12-17T01:25:35;10.00;;;6.10;;
2147;SDS011;1080;48.724;9.104;2022-12-17T01:28:20;10.17;;;6.80;;
2147;SDS011;1080;48.724;9.104;2022-12-17T01:31:06;8.70;;;6.67;;
2147;SDS011;1080;48.724;9.104;2022-12-17T01:33:51;8.60;;;6.03;;
2147;SDS011;1080;48.724;9.104;2022-12-17T01:36:35;16.40;;;8.73;;
2147;SDS011;1080;48.724;9.104;2022-12-17T01:39:20;14.03;;;8.13;;
2147;SDS011;1080;48.724;9.104;2022-12-17T01:42:04;18.57;;;9.60;;
2147;SDS011;1080;48.724;9.104;2022-12-17T01:44:51;15.40;;;8.60;;
2147;SDS011;1080;48.724;9.104;2022-12-17T01:47:38;12.07;;;6.60;;
2147;SDS011;1080;48.724;9.104;2022-12-17T01:50:26;11.37;;;6.73;;
2147;SDS011;1080;48.724;9.104;2022-12-17T01:53:12;13.80;;;7.67;;
2147;SDS011;1080;48.724;9.104;2022-12-17T01:55:56;10.37;;;7.20;;
2147;SDS011;1080;48.724;9.104;2022-12-17T01:58:41;9.87;;;6.67;;
2147;SDS011;1080;48.724;9.104;2022-12-17T02:01:25;14.20;;;7.67;;
2147;SDS011;1080;48.724;9.104;2022-12-17T02:04:11;16.43;;;8.20;;
2147;SDS011;1080;48.724;9.104;2022-12-17T02:06:59;13.93;;;7.10;;
2147;SDS011;1080;48.724;9.104;2022-12-17T02:09:57;8.63;;;6.37;;
2147;SDS011;1080;48.724;9.104;2022-12-17T02:12:50;12.00;;;7.40;;
2147;SDS011;1080;48.724;9.104;2022-12-17T02:15:38;19.23;;;7.73;;
2147;SDS011;1080;48.724;9.104;2022-12-17T02:18:27;14.60;;;6.10;;
2147;SDS011;1080;48.724;9.104;2022-12-17T02:21:18;7.53;;;5.67;;
2147;SDS011;1080;48.724;9.104;2022-12-17T02:24:06;20.90;;;6.83;;
2147;SDS011;1080;48.724;9.104;2022-12-17T02:26:57;13.80;;;7.50;;
2147;SDS011;1080;48.724;9.104;2022-12-17T02:29:46;9.43;;;5.47;;
2147;SDS011;1080;48.724;9.104;2022-12-17T02:32:33;9.23;;;5.20;;
2147;SDS011;1080;48.724;9.104;2022-12-17T02:35:21;9.30;;;6.40;;
2147;SDS011;1080;48.724;9.104;2022-12-17T02:38:15;12.90;;;5.33;;
2147;SDS011;1080;48.724;9.104;2022-12-17T02:41:00;10.20;;;6.30;;
2147;SDS011;1080;48.724;9.104;2022-12-17T02:43:47;10.00;;;6.53;;
2147;SDS011;1080;48.724;9.104;2022-12-17T02:46:32;11.43;;;6.37;;
2147;SDS011;1080;48.724;9.104;2022-12-17T02:49:17;11.00;;;5.80;;
2147;SDS011;1080;48.724;9.104;2022-12-17T02:52:01;10.60;;;5.53;;
2147;SDS011;1080;48.724;9.104;2022-12-17T02:54:46;13.03;;;6.97;;
2147;SDS011;1080;48.724;9.104;2022-12-17T02:57:30;10.57;;;5.97;;
2147;SDS011;1080;48.724;9.104;2022-12-17T03:00:16;9.10;;;4.87;;
2147;SDS011;1080;48.724;9.104;2022-12-17T03:03:00;8.70;;;5.50;;
2147;SDS011;1080;48.724;9.104;2022-12-17T03:05:45;10.77;;;6.47;;
2147;SDS011;1080;48.724;9.104;2022-12-17T03:08:30;9.67;;;5.50;;
2147;SDS011;1080;48.724;9.104;2022-12-17T03:11:14;10.67;;;6.37;;
2147;SDS011;1080;48.724;9.104;2022-12-17T03:13:59;10.50;;;5.80;;
2147;SDS011;1080;48.724;9.104;2022-12-17T03:16:45;7.90;;;5.33;;
2147;SDS011;1080;48.724;9.104;2022-12-17T03:19:29;8.80;;;5.47;;
2147;SDS011;1080;48.724;9.104;2022-12-17T03:22:14;9.77;;;5.97;;
2147;SDS011;1080;48.724;9.104;2022-12-17T03:24:59;13.07;;;6.63;;
2147;SDS011;1080;48.724;9.104;2022-12-17T03:27:43;6.90;;;4.00;;
2147;SDS011;1080;48.724;9.104;2022-12-17T03:30:28;9.47;;;6.60;;
2147;SDS011;1080;48.724;9.104;2022-12-17T03:33:14;10.17;;;6.60;;
2147;SDS011;1080;48.724;9.104;2022-12-17T03:35:58;8.83;;;5.10;;
2147;SDS011;1080;48.724;9.104;2022-12-17T03:38:43;10.30;;;4.70;;
2147;SDS011;1080;48.724;9.104;2022-12-17T03:41:27;7.70;;;4.70;;
2147;SDS011;1080;48.724;9.104;2022-12-17T03:44:27;8.40;;;5.00;;
2147;SDS011;1080;48.724;9.104;2022-12-17T03:47:11;10.40;;;6.67;;
2147;SDS011;1080;48.724;9.104;2022-12-17T03:49:57;11.00;;;6.03;;
2147;SDS011;1080;48.724;9.104;2022-12-17T03:52:41;9.97;;;5.80;;
2147;SDS011;1080;48.724;9.104;2022-12-17T03:55:25;10.63;;;5.87;;
2147;SDS011;1080;48.724;9.104;2022-12-17T03:58:12;8.87;;;6.47;;
2147;SDS011;1080;48.724;9.104;2022-12-17T04:00:57;7.67;;;5.23;;
2147;SDS011;1080;48.724;9.104;2022-12-17T04:03:42;12.20;;;6.83;;
2147;SDS011;1080;48.724;9.104;2022-12-17T04:06:28;10.90;;;6.70;;
2147;SDS011;1080;48.724;9.104;2022-12-17T04:09:12;13.53;;;6.03;;
2147;SDS011;1080;48.724;9.104;2022-12-17T04:11:57;12.40;;;5.57;;
2147;SDS011;1080;48.724;9.104;2022-12-17T04:14:41;13.47;;;5.60;;
2147;SDS011;1080;48.724;9.104;2022-12-17T04:17:26;14.97;;;6.07;;
2147;SDS011;1080;48.724;9.104;2022-12-17T04:20:11;10.10;;;5.40;;
2147;SDS011;1080;48.724;9.104;2022-12-17T04:22:56;9.97;;;4.37;;
2147;SDS011;1080;48.724;9.104;2022-12-17T04:25:40;11.60;;;5.03;;
2147;SDS011;1080;48.724;9.104;2022-12-17T04:28:25;11.43;;;5.80;;
2147;SDS011;1080;48.724;9.104;2022-12-17T04:31:10;10.30;;;6.80;;
2147;SDS011;1080;48.724;9.104;2022-12-17T04:33:54;9.33;;;5.50;;
2147;SDS011;1080;48.724;9.104;2022-12-17T04:36:39;5.03;;;3.47;;
2147;SDS011;1080;48.724;9.104;2022-12-17T04:39:25;10.30;;;5.80;;
2147;SDS011;1080;48.724;9.104;2022-12-17T04:42:09;8.87;;;4.57;;
2147;SDS011;1080;48.724;9.104;2022-12-17T04:44:54;12.20;;;5.73;;
2147;SDS011;1080;48.724;9.104;2022-12-17T04:47:38;10.50;;;6.17;;
2147;SDS011;1080;48.724;9.104;2022-12-17T04:50:23;14.17;;;6.47;;
2147;SDS011;1080;48.724;9.104;2022-12-17T04:53:22;11.30;;;5.63;;
2147;SDS011;1080;48.724;9.104;2022-12-17T04:56:08;10.70;;;4.93;;
2147;SDS011;1080;48.724;9.104;2022-12-17T04:58:52;11.07;;;5.80;;
2147;SDS011;1080;48.724;9.104;2022-12-17T05:01:37;13.60;;;6.77;;
2147;SDS011;1080;48.724;9.104;2022-12-17T05:04:18;8.47;;;5.00;;
2147;SDS011;1080;48.724;9.104;2022-12-17T05:07:03;13.60;;;6.97;;
2147;SDS011;1080;48.724;9.104;2022-12-17T05:09:48;5.90;;;4.57;;
2147;SDS011;1080;48.724;9.104;2022-12-17T05:12:33;9.23;;;5.87;;
2147;SDS011;1080;48.724;9.104;2022-12-17T05:15:18;11.57;;;7.30;;
2147;SDS011;1080;48.724;9.104;2022-12-17T05:18:03;9.97;;;5.50;;
2147;SDS011;1080;48.724;9.104;2022-12-17T05:20:48;9.47;;;5.70;;
2147;SDS011;1080;48.724;9.104;2022-12-17T05:23:32;16.23;;;6.37;;
2147;SDS011;1080;48.724;9.104;2022-12-17T05:26:18;13.03;;;6.43;;
2147;SDS011;1080;48.724;9.104;2022-12-17T05:29:05;14.00;;;8.00;;
2147;SDS011;1080;48.724;9.104;2022-12-17T05:31:50;11.80;;;7.43;;
2147;SDS011;1080;48.724;9.104;2022-12-17T05:34:35;19.93;;;8.53;;
2147;SDS011;1080;48.724;9.104;2022-12-17T05:37:19;11.37;;;5.83;;
2147;SDS011;1080;48.724;9.104;2022-12-17T05:40:05;6.93;;;5.13;;
2147;SDS011;1080;48.724;9.104;2022-12-17T05:42:54;13.50;;;7.90;;
2147;SDS011;1080;48.724;9.104;2022-12-17T05:45:40;12.03;;;8.10;;
2147;SDS011;1080;48.724;9.104;2022-12-17T05:48:24;11.30;;;5.80;;
2147;SDS011;1080;48.724;9.104;2022-12-17T05:51:09;8.80;;;6.73;;
2147;SDS011;1080;48.724;9.104;2022-12-17T05:53:53;8.83;;;5.97;;
2147;SDS011;1080;48.724;9.104;2022-12-17T05:56:49;13.17;;;7.80;;
2147;SDS011;1080;48.724;9.104;2022-12-17T05:59:34;13.07;;;7.87;;
2147;SDS011;1080;48.724;9.104;2022-12-17T06:02:20;10.70;;;5.17;;
2147;SDS011;1080;48.724;9.104;2022-12-17T06:05:05;30.40;;;9.30;;
2147;SDS011;1080;48.724;9.104;2022-12-17T06:07:50;16.00;;;6.67;;
2147;SDS011;1080;48.724;9.104;2022-12-17T06:10:34;19.43;;;10.57;;
2147;SDS011;1080;48.724;9.104;2022-12-17T06:13:19;20.53;;;9.70;;
2147;SDS011;1080;48.724;9.104;2022-12-17T06:16:03;23.87;;;10.37;;
2147;SDS011;1080;48.724;9.104;2022-12-17T06:18:50;14.33;;;7.87;;
2147;SDS011;1080;48.724;9.104;2022-12-17T06:21:34;21.40;;;9.53;;
2147;SDS011;1080;48.724;9.104;2022-12-17T06:24:18;21.70;;;10.90;;
2147;SDS011;1080;48.724;9.104;2022-12-17T06:27:03;24.93;;;10.43;;
2147;SDS011;1080;48.724;9.104;2022-12-17T06:29:47;32.10;;;15.30;;
2147;SDS011;1080;48.724;9.104;2022-12-17T06:32:32;36.93;;;17.67;;
2147;SDS011;1080;48.724;9.104;2022-12-17T06:35:18;20.97;;;10.07;;
2147;SDS011;1080;48.724;9.104;2022-12-17T06:38:03;18.07;;;10.33;;
2147;SDS011;1080;48.724;9.104;2022-12-17T06:40:49;23.43;;;12.50;;
2147;SDS011;1080;48.724;9.104;2022-12-17T06:43:34;8.53;;;4.90;;
2147;SDS011;1080;48.724;9.104;2022-12-17T06:46:19;12.17;;;7.27;;
2147;SDS011;1080;48.724;9.104;2022-12-17T06:49:03;16.77;;;8.40;;
2147;SDS011;1080;48.724;9.104;2022-12-17T06:51:49;12.27;;;8.50;;
2147;SDS011;1080;48.724;9.104;2022-12-17T06:54:34;8.63;;;5.13;;
2147;SDS011;1080;48.724;9.104;2022-12-17T06:57:19;16.23;;;8.27;;
2147;SDS011;1080;48.724;9.104;2022-12-17T07:00:04;5.30;;;3.00;;
2147;SDS011;1080;48.724;9.104;2022-12-17T07:02:53;2.83;;;2.60;;
2147;SDS011;1080;48.724;9.104;2022-12-17T07:05:38;18.80;;;8.67;;
2147;SDS011;1080;48.724;9.104;2022-12-17T07:08:23;5.50;;;2.80;;
2147;SDS011;1080;48.724;9.104;2022-12-17T07:11:08;16.37;;;8.73;;
2147;SDS011;1080;48.724;9.104;2022-12-17T07:13:52;11.23;;;6.90;;
2147;SDS011;1080;48.724;9.104;2022-12-17T07:16:39;36.27;;;9.10;;
2147;SDS011;1080;48.724;9.104;2022-12-17T07:19:24;12.67;;;6.50;;
2147;SDS011;1080;48.724;9.104;2022-12-17T07:22:05;10.17;;;6.10;;
2147;SDS011;1080;48.724;9.104;2022-12-17T07:24:51;15.50;;;7.47;;
2147;SDS011;1080;48.724;9.104;2022-12-17T07:27:35;7.80;;;4.87;;
2147;SDS011;1080;48.724;9.104;2022-12-17T07:30:20;15.40;;;9.13;;
2147;SDS011;1080;48.724;9.104;2022-12-17T07:33:05;11.60;;;6.83;;
2147;SDS011;1080;48.724;9.104;2022-12-17T07:35:51;4.63;;;3.33;;
2147;SDS011;1080;48.724;9.104;2022-12-17T07:38:36;12.57;;;4.67;;
2147;SDS011;1080;48.724;9.104;2022-12-17T07:41:21;14.73;;;7.20;;
2147;SDS011;1080;48.724;9.104;2022-12-17T07:44:06;29.73;;;12.93;;
2147;SDS011;1080;48.724;9.104;2022-12-17T07:46:50;11.77;;;5.53;;
2147;SDS011;1080;48.724;9.104;2022-12-17T07:49:35;26.00;;;12.77;;
2147;SDS011;1080;48.724;9.104;2022-12-17T07:52:19;23.03;;;10.33;;
2147;SDS011;1080;48.724;9.104;2022-12-17T07:55:04;15.20;;;8.30;;
2147;SDS011;1080;48.724;9.104;2022-12-17T07:57:57;6.43;;;4.23;;
2147;SDS011;1080;48.724;9.104;2022-12-17T08:00:42;15.33;;;8.97;;
2147;SDS011;1080;48.724;9.104;2022-12-17T08:03:27;11.77;;;7.30;;
2147;SDS011;1080;48.724;9.104;2022-12-17T08:06:11;22.23;;;9.33;;
2147;SDS011;1080;48.724;9.104;2022-12-17T08:08:56;12.60;;;7.80;;
2147;SDS011;1080;48.724;9.104;2022-12-17T08:11:40;8.70;;;5.30;;
2147;SDS011;1080;48.724;9.104;2022-12-17T08:14:26;5.07;;;2.90;;
2147;SDS011;1080;48.724;9.104;2022-12-17T08:17:11;25.30;;;11.90;;
2147;SDS011;1080;48.724;9.104;2022-12-17T08:19:55;26.33;;;11.40;;
2147;SDS011;1080;48.724;9.104;2022-12-17T08:22:40;25.03;;;10.57;;
2147;SDS011;1080;48.724;9.104;2022-12-17T08:25:25;102.90;;;36.53;;
2147;SDS011;1080;48.724;9.104;2022-12-17T08:28:09;18.90;;;9.57;;
2147;SDS011;1080;48.724;9.104;2022-12-17T08:30:55;15.83;;;6.90;;
2147;SDS011;1080;48.724;9.104;2022-12-17T08:33:39;6.40;;;3.20;;
2147;SDS011;1080;48.724;9.104;2022-12-17T08:36:24;16.03;;;9.00;;
2147;SDS011;1080;48.724;9.104;2022-12-17T08:39:08;13.10;;;6.20;;
2147;SDS011;1080;48.724;9.104;2022-12-17T08:42:01;19.30;;;6.07;;
2147;SDS011;1080;48.724;9.104;2022-12-17T08:44:46;9.33;;;6.93;;
2147;SDS011;1080;48.724;9.104;2022-12-17T08:47:32;17.40;;;8.20;;
2147;SDS011;1080;48.724;9.104;2022-12-17T08:50:17;8.23;;;5.33;;
2147;SDS011;1080;48.724;9.104;2022-12-17T08:53:02;8.57;;;7.00;;
2147;SDS011;1080;48.724;9.104;2022-12-17T08:55:47;14.83;;;8.17;;
2147;SDS011;1080;48.724;9.104;2022-12-17T08:58:31;14.43;;;7.90;;
2147;SDS011;1080;48.724;9.104;2022-12-17T09:01:16;6.33;;;4.40;;
2147;SDS011;1080;48.724;9.104;2022-12-17T09:04:02;23.77;;;11.43;;
2147;SDS011;1080;48.724;9.104;2022-12-17T09:06:47;12.63;;;8.27;;
2147;SDS011;1080;48.724;9.104;2022-12-17T09:09:37;15.43;;;10.73;;
2147;SDS011;1080;48.724;9.104;2022-12-17T09:12:22;31.73;;;20.60;;
2147;SDS011;1080;48.724;9.104;2022-12-17T09:15:07;16.57;;;9.80;;
2147;SDS011;1080;48.724;9.104;2022-12-17T09:17:51;16.57;;;10.67;;
2147;SDS011;1080;48.724;9.104;2022-12-17T09:20:38;24.87;;;10.80;;
2147;SDS011;1080;48.724;9.104;2022-12-17T09:23:23;16.60;;;8.83;;
2147;SDS011;1080;48.724;9.104;2022-12-17T09:26:07;19.07;;;8.40;;
2147;SDS011;1080;48.724;9.104;2022-12-17T09:28:52;12.27;;;7.40;;
2147;SDS011;1080;48.724;9.104;2022-12-17T09:31:36;23.13;;;13.13;;
2147;SDS011;1080;48.724;9.104;2022-12-17T09:34:21;11.10;;;7.00;;
2147;SDS011;1080;48.724;9.104;2022-12-17T09:37:07;23.23;;;13.50;;
2147;SDS011;1080;48.724;9.104;2022-12-17T09:39:51;33.87;;;18.07;;
2147;SDS011;1080;48.724;9.104;2022-12-17T09:42:37;23.80;;;16.53;;
2147;SDS011;1080;48.724;9.104;2022-12-17T09:45:26;21.03;;;10.77;;
2147;SDS011;1080;48.724;9.104;2022-12-17T09:48:16;17.40;;;9.73;;
2147;SDS011;1080;48.724;9.104;2022-12-17T09:51:09;21.47;;;14.07;;
2147;SDS011;1080;48.724;9.104;2022-12-17T09:54:05;16.03;;;8.67;;
2147;SDS011;1080;48.724;9.104;2022-12-17T09:57:05;17.50;;;9.40;;
2147;SDS011;1080;48.724;9.104;2022-12-17T09:59:55;11.73;;;6.20;;
2147;SDS011;1080;48.724;9.104;2022-12-17T10:02:40;22.10;;;11.80;;
2147;SDS011;1080;48.724;9.104;2022-12-17T10:05:25;49.17;;;25.80;;
2147;SDS011;1080;48.724;9.104;2022-12-17T10:08:14;19.53;;;12.07;;
2147;SDS011;1080;48.724;9.104;2022-12-17T10:11:08;30.23;;;12.90;;
2147;SDS011;1080;48.724;9.104;2022-12-17T10:14:02;14.57;;;10.93;;
2147;SDS011;1080;48.724;9.104;2022-12-17T10:16:49;17.47;;;11.00;;
2147;SDS011;1080;48.724;9.104;2022-12-17T10:19:34;26.07;;;13.63;;
2147;SDS011;1080;48.724;9.104;2022-12-17T10:22:22;20.03;;;11.50;;
2147;SDS011;1080;48.724;9.104;2022-12-17T10:25:08;26.13;;;13.87;;
2147;SDS011;1080;48.724;9.104;2022-12-17T10:28:00;21.83;;;12.60;;
2147;SDS011;1080;48.724;9.104;2022-12-17T10:30:46;37.57;;;19.80;;
2147;SDS011;1080;48.724;9.104;2022-12-17T10:33:35;28.20;;;14.70;;
2147;SDS011;1080;48.724;9.104;2022-12-17T10:36:20;22.60;;;12.27;;
2147;SDS011;1080;48.724;9.104;2022-12-17T10:39:11;22.73;;;14.00;;
2147;SDS011;1080;48.724;9.104;2022-12-17T10:42:01;30.37;;;15.10;;
2147;SDS011;1080;48.724;9.104;2022-12-17T10:44:47;27.53;;;15.37;;
2147;SDS011;1080;48.724;9.104;2022-12-17T10:47:32;28.67;;;14.60;;
2147;SDS011;1080;48.724;9.104;2022-12-17T10:50:17;27.57;;;17.50;;
2147;SDS011;1080;48.724;9.104;2022-12-17T10:53:03;24.90;;;12.40;;
2147;SDS011;1080;48.724;9.104;2022-12-17T10:55:58;27.70;;;14.77;;
2147;SDS011;1080;48.724;9.104;2022-12-17T10:58:44;24.30;;;13.53;;
2147;SDS011;1080;48.724;9.104;2022-12-17T11:01:32;21.60;;;11.90;;
2147;SDS011;1080;48.724;9.104;2022-12-17T11:04:23;24.50;;;13.33;;
2147;SDS011;1080;48.724;9.104;2022-12-17T11:07:11;22.00;;;12.43;;
2147;SDS011;1080;48.724;9.104;2022-12-17T11:10:01;27.83;;;12.87;;
2147;SDS011;1080;48.724;9.104;2022-12-17T11:12:48;23.07;;;13.00;;
2147;SDS011;1080;48.724;9.104;2022-12-17T11:15:35;24.60;;;12.47;;
2147;SDS011;1080;48.724;9.104;2022-12-17T11:18:25;26.40;;;14.40;;
2147;SDS011;1080;48.724;9.104;2022-12-17T11:21:19;23.87;;;11.47;;
2147;SDS011;1080;48.724;9.104;2022-12-17T11:24:07;26.27;;;14.87;;
2147;SDS011;1080;48.724;9.104;2022-12-17T11:26:56;26.47;;;14.17;;
2147;SDS011;1080;48.724;9.104;2022-12-17T11:29:42;31.97;;;16.60;;
2147;SDS011;1080;48.724;9.104;2022-12-17T11:32:33;33.43;;;17.67;;
2147;SDS011;1080;48.724;9.104;2022-12-17T11:35:29;31.83;;;15.67;;
2147;SDS011;1080;48.724;9.104;2022-12-17T11:38:21;30.00;;;14.60;;
2147;SDS011;1080;48.724;9.104;2022-12-17T11:41:13;31.30;;;14.40;;
2147;SDS011;1080;48.724;9.104;2022-12-17T11:44:02;31.40;;;14.83;;
2147;SDS011;1080;48.724;9.104;2022-12-17T11:46:58;34.33;;;16.60;;
2147;SDS011;1080;48.724;9.104;2022-12-17T11:49:49;25.60;;;12.97;;
2147;SDS011;1080;48.724;9.104;2022-12-17T11:52:45;26.13;;;14.87;;
2147;SDS011;1080;48.724;9.104;2022-12-17T11:55:35;34.53;;;16.07;;
2147;SDS011;1080;48.724;9.104;2022-12-17T11:58:38;25.53;;;13.90;;
2147;SDS011;1080;48.724;9.104;2022-12-17T12:01:26;30.23;;;14.17;;
2147;SDS011;1080;48.724;9.104;2022-12-17T12:04:21;31.37;;;14.60;;
2147;SDS011;1080;48.724;9.104;2022-12-17T12:07:20;23.03;;;13.20;;
2147;SDS011;1080;48.724;9.104;2022-12-17T12:10:12;28.70;;;15.03;;
2147;SDS011;1080;48.724;9.104;2022-12-17T12:13:08;31.00;;;15.17;;
2147;SDS011;1080;48.724;9.104;2022-12-17T12:16:04;32.77;;;15.90;;
2147;SDS011;1080;48.724;9.104;2022-12-17T12:18:57;26.47;;;13.00;;
2147;SDS011;1080;48.724;9.104;2022-12-17T12:21:49;26.40;;;14.77;;
2147;SDS011;1080;48.724;9.104;2022-12-17T12:25:08;27.97;;;16.17;;
2147;SDS011;1080;48.724;9.104;2022-12-17T12:28:09;23.03;;;12.70;;
2147;SDS011;1080;48.724;9.104;2022-12-17T12:31:00;31.53;;;14.30;;
2147;SDS011;1080;48.724;9.104;2022-12-17T12:33:52;25.80;;;13.13;;
2147;SDS011;1080;48.724;9.104;2022-12-17T12:36:41;24.97;;;14.27;;
2147;SDS011;1080;48.724;9.104;2022-12-17T12:39:27;25.30;;;13.27;;
2147;SDS011;1080;48.724;9.104;2022-12-17T12:42:19;19.90;;;11.67;;
2147;SDS011;1080;48.724;9.104;2022-12-17T12:45:20;22.57;;;12.80;;
2147;SDS011;1080;48.724;9.104;2022-12-17T12:48:21;26.80;;;13.70;;
2147;SDS011;1080;48.724;9.104;2022-12-17T12:51:12;27.80;;;14.33;;
2147;SDS011;1080;48.724;9.104;2022-12-17T12:54:19;30.17;;;14.40;;
2147;SDS011;1080;48.724;9.104;2022-12-17T13:00:21;34.17;;;14.93;;
2147;SDS011;1080;48.724;9.104;2022-12-17T13:03:27;31.60;;;14.83;;
2147;SDS011;1080;48.724;9.104;2022-12-17T13:06:14;33.67;;;15.03;;
2147;SDS011;1080;48.724;9.104;2022-12-17T13:09:05;37.47;;;20.60;;
2147;SDS011;1080;48.724;9.104;2022-12-17T13:11:47;37.97;;;16.80;;
2147;SDS011;1080;48.724;9.104;2022-12-17T13:14:17;31.57;;;16.47;;
2147;SDS011;1080;48.724;9.104;2022-12-17T13:16:49;36.77;;;15.47;;
2147;SDS011;1080;48.724;9.104;2022-12-17T13:19:20;24.80;;;13.87;;
2147;SDS011;1080;48.724;9.104;2022-12-17T13:22:08;25.57;;;14.50;;
2147;SDS011;1080;48.724;9.104;2022-12-17T13:24:35;31.93;;;16.53;;
2147;SDS011;1080;48.724;9.104;2022-12-17T13:27:03;33.87;;;17.57;;
2147;SDS011;1080;48.724;9.104;2022-12-17T13:29:32;31.43;;;17.10;;
2147;SDS011;1080;48.724;9.104;2022-12-17T13:32:14;39.00;;;16.50;;
2147;SDS011;1080;48.724;9.104;2022-12-17T13:37:36;33.10;;;17.00;;
2147;SDS011;1080;48.724;9.104;2022-12-17T13:40:12;31.43;;;15.90;;
2147;SDS011;1080;48.724;9.104;2022-12-17T13:42:43;30.97;;;16.90;;
2147;SDS011;1080;48.724;9.104;2022-12-17T13:45:13;41.27;;;17.20;;
2147;SDS011;1080;48.724;9.104;2022-12-17T13:47:41;39.07;;;18.43;;
2147;SDS011;1080;48.724;9.104;2022-12-17T13:50:17;35.63;;;18.83;;
2147;SDS011;1080;48.724;9.104;2022-12-17T13:52:45;37.03;;;18.00;;
2147;SDS011;1080;48.724;9.104;2022-12-17T13:55:16;34.03;;;19.40;;
2147;SDS011;1080;48.724;9.104;2022-12-17T13:57:45;24.10;;;14.80;;
2147;SDS011;1080;48.724;9.104;2022-12-17T14:00:21;25.93;;;14.67;;
2147;SDS011;1080;48.724;9.104;2022-12-17T14:02:50;31.97;;;15.97;;
2147;SDS011;1080;48.724;9.104;2022-12-17T14:05:21;37.20;;;18.17;;
2147;SDS011;1080;48.724;9.104;2022-12-17T14:07:50;37.80;;;16.33;;
2147;SDS011;1080;48.724;9.104;2022-12-17T14:10:18;46.20;;;20.90;;
2147;SDS011;1080;48.724;9.104;2022-12-17T14:12:45;45.17;;;22.07;;
2147;SDS011;1080;48.724;9.104;2022-12-17T14:15:17;43.53;;;20.13;;
2147;SDS011;1080;48.724;9.104;2022-12-17T14:17:50;36.70;;;19.73;;
2147;SDS011;1080;48.724;9.104;2022-12-17T14:20:19;48.83;;;22.60;;
2147;SDS011;1080;48.724;9.104;2022-12-17T14:22:48;41.40;;;21.00;;
2147;SDS011;1080;48.724;9.104;2022-12-17T14:25:18;57.17;;;24.33;;
2147;SDS011;1080;48.724;9.104;2022-12-17T14:27:51;43.60;;;23.20;;
2147;SDS011;1080;48.724;9.104;2022-12-17T14:30:20;46.87;;;22.13;;
2147;SDS011;1080;48.724;9.104;2022-12-17T14:32:50;44.13;;;21.30;;
2147;SDS011;1080;48.724;9.104;2022-12-17T14:35:24;51.90;;;22.87;;
2147;SDS011;1080;48.724;9.104;2022-12-17T14:37:53;41.57;;;22.53;;
2147;SDS011;1080;48.724;9.104;2022-12-17T14:40:21;42.13;;;20.23;;
2147;SDS011;1080;48.724;9.104;2022-12-17T14:42:50;49.50;;;23.17;;
2147;SDS011;1080;48.724;9.104;2022-12-17T14:45:20;44.87;;;21.80;;
2147;SDS011;1080;48.724;9.104;2022-12-17T14:47:53;47.70;;;23.97;;
2147;SDS011;1080;48.724;9.104;2022-12-17T14:50:24;44.03;;;21.67;;
2147;SDS011;1080;48.724;9.104;2022-12-17T14:52:53;48.37;;;24.53;;
2147;SDS011;1080;48.724;9.104;2022-12-17T14:55:25;44.03;;;22.23;;
2147;SDS011;1080;48.724;9.104;2022-12-17T14:58:07;41.17;;;19.80;;
2147;SDS011;1080;48.724;9.104;2022-12-17T15:00:44;38.17;;;20.73;;
2147;SDS011;1080;48.724;9.104;2022-12-17T15:03:18;34.97;;;17.40;;
2147;SDS011;1080;48.724;9.104;2022-12-17T15:05:49;49.50;;;23.90;;
2147;SDS011;1080;48.724;9.104;2022-12-17T15:08:18;32.93;;;17.47;;
2147;SDS011;1080;48.724;9.104;2022-12-17T15:10:45;35.63;;;18.47;;
2147;SDS011;1080;48.724;9.104;2022-12-17T15:13:12;52.03;;;18.47;;
2147;SDS011;1080;48.724;9.104;2022-12-17T15:15:39;48.97;;;20.27;;
2147;SDS011;1080;48.724;9.104;2022-12-17T15:18:08;33.97;;;18.47;;
2147;SDS011;1080;48.724;9.104;2022-12-17T15:20:35;40.30;;;20.63;;
2147;SDS011;1080;48.724;9.104;2022-12-17T15:23:02;43.77;;;24.43;;
2147;SDS011;1080;48.724;9.104;2022-12-17T15:25:29;41.83;;;18.53;;
2147;SDS011;1080;48.724;9.104;2022-12-17T15:27:56;44.47;;;25.00;;
2147;SDS011;1080;48.724;9.104;2022-12-17T15:30:23;36.97;;;18.60;;
2147;SDS011;1080;48.724;9.104;2022-12-17T15:32:50;44.97;;;22.00;;
2147;SDS011;1080;48.724;9.104;2022-12-17T15:35:19;35.17;;;19.03;;
2147;SDS011;1080;48.724;9.104;2022-12-17T15:37:46;46.60;;;20.67;;
2147;SDS011;1080;48.724;9.104;2022-12-17T15:40:13;36.67;;;18.60;;
2147;SDS011;1080;48.724;9.104;2022-12-17T15:42:40;31.03;;;16.07;;
2147;SDS011;1080;48.724;9.104;2022-12-17T15:45:25;36.87;;;16.23;;
2147;SDS011;1080;48.724;9.104;2022-12-17T15:47:52;32.50;;;14.53;;
2147;SDS011;1080;48.724;9.104;2022-12-17T15:50:20;29.67;;;14.63;;
2147;SDS011;1080;48.724;9.104;2022-12-17T15:52:47;34.67;;;15.97;;
2147;SDS011;1080;48.724;9.104;2022-12-17T15:55:15;38.73;;;17.30;;
2147;SDS011;1080;48.724;9.104;2022-12-17T15:57:42;28.63;;;14.00;;
2147;SDS011;1080;48.724;9.104;2022-12-17T16:00:10;40.70;;;18.20;;
2147;SDS011;1080;48.724;9.104;2022-12-17T16:02:37;37.60;;;17.87;;
2147;SDS011;1080;48.724;9.104;2022-12-17T16:05:04;30.87;;;15.17;;
2147;SDS011;1080;48.724;9.104;2022-12-17T16:07:33;32.00;;;15.50;;
2147;SDS011;1080;48.724;9.104;2022-12-17T16:10:01;27.20;;;15.40;;
2147;SDS011;1080;48.724;9.104;2022-12-17T16:12:28;36.70;;;18.17;;
2147;SDS011;1080;48.724;9.104;2022-12-17T16:14:55;33.27;;;15.93;;
2147;SDS011;1080;48.724;9.104;2022-12-17T16:17:22;25.77;;;14.80;;
2147;SDS011;1080;48.724;9.104;2022-12-17T16:19:49;29.60;;;16.23;;
2147;SDS011;1080;48.724;9.104;2022-12-17T16:22:16;30.10;;;15.70;;
2147;SDS011;1080;48.724;9.104;2022-12-17T16:24:45;32.27;;;17.63;;
2147;SDS011;1080;48.724;9.104;2022-12-17T16:27:11;44.40;;;17.10;;
2147;SDS011;1080;48.724;9.104;2022-12-17T16:29:38;37.43;;;17.70;;
2147;SDS011;1080;48.724;9.104;2022-12-17T16:32:06;31.13;;;16.60;;
2147;SDS011;1080;48.724;9.104;2022-12-17T16:34:33;31.37;;;14.90;;
2147;SDS011;1080;48.724;9.104;2022-12-17T16:37:00;54.10;;;20.37;;
2147;SDS011;1080;48.724;9.104;2022-12-17T16:39:27;48.03;;;17.40;;